Time;durP1;ratioP1;P1;durP2;ratioP2;P2;SDS_P1;SDS_P2;PMS_P1;PMS_P2;Temp;Humidity;BMP_temperature;BMP_pressure;BME280_temperature;BME280_humidity;BME280_pressure;Samples;Min_cycle;Max_cycle;Signal;HPM_P1;HPM_P2
2022/09/20 00:00:31;;;;;;;;;;;21.10;40.90;;;;;;492174;240;1240;-51
2022/09/20 00:02:32;;;;;;;;;;;21.10;40.90;;;;;;492216;240;1284;-51
2022/09/20 00:04:33;;;;;;;;;;;21.10;40.80;;;;;;491753;240;1306;-50
2022/09/20 00:06:34;;;;;;;;;;;21.10;40.80;;;;;;491829;240;1295;-50
2022/09/20 00:08:36;;;;;;;;;;;21.20;40.80;;;;;;492209;240;1316;-50
2022/09/20 00:10:38;;;;;;;;;;;21.20;40.80;;;;;;492136;240;2203;-51
2022/09/20 00:12:38;;;;;;;;;;;21.10;40.70;;;;;;491742;240;3014;-51
2022/09/20 00:14:40;;;;;;;;;;;21.20;40.80;;;;;;491747;240;1195;-51
2022/09/20 00:16:41;;;;;;;;;;;21.20;40.70;;;;;;492146;240;1235;-50
2022/09/20 00:18:42;;;;;;;;;;;21.20;40.60;;;;;;491953;240;1292;-51
2022/09/20 00:20:44;;;;;;;;;;;21.10;40.60;;;;;;491744;240;1258;-51
2022/09/20 00:22:48;;;;;;;;;;;21.10;40.60;;;;;;492205;240;1302;-50
2022/09/20 00:24:47;;;;;;;;;;;21.10;40.60;;;;;;492151;240;1418;-51
2022/09/20 00:26:48;;;;;;;;;;;21.10;40.60;;;;;;492216;240;1291;-51
2022/09/20 00:28:50;;;;;;;;;;;21.10;40.50;;;;;;492220;240;1273;-50
2022/09/20 00:30:51;;;;;;;;;;;21.10;40.60;;;;;;492197;240;2109;-51
2022/09/20 00:32:52;;;;;;;;;;;21.20;40.60;;;;;;492210;240;1185;-50
2022/09/20 00:35:09;;;;;;;;;;;21.20;40.50;;;;;;491752;240;1219;-50
2022/09/20 00:37:10;;;;;;;;;;;21.10;40.40;;;;;;491797;240;2127;-51
2022/09/20 00:39:11;;;;;;;;;;;21.10;40.40;;;;;;492186;240;1258;-51
2022/09/20 00:41:12;;;;;;;;;;;21.10;40.40;;;;;;492085;240;1271;-51
2022/09/20 00:43:14;;;;;;;;;;;21.20;40.40;;;;;;492160;240;1168;-51
2022/09/20 00:45:15;;;;;;;;;;;21.20;40.40;;;;;;491737;240;1212;-50
2022/09/20 00:47:17;;;;;;;;;;;21.10;40.40;;;;;;492149;240;1336;-51
2022/09/20 00:49:18;;;;;;;;;;;21.10;40.50;;;;;;492176;240;2184;-51
2022/09/20 00:51:19;;;;;;;;;;;21.10;40.60;;;;;;491916;240;1439;-51
2022/09/20 00:53:21;;;;;;;;;;;21.10;40.60;;;;;;492206;240;1242;-51
2022/09/20 00:55:22;;;;;;;;;;;21.10;40.50;;;;;;492144;240;1176;-51
2022/09/20 00:57:23;;;;;;;;;;;21.10;40.50;;;;;;492203;240;1581;-50
2022/09/20 00:59:25;;;;;;;;;;;21.10;40.40;;;;;;491724;240;1292;-51
2022/09/20 01:01:26;;;;;;;;;;;21.10;40.40;;;;;;492199;240;1338;-50
2022/09/20 01:03:30;;;;;;;;;;;21.10;40.40;;;;;;492219;240;1160;-51
2022/09/20 01:05:29;;;;;;;;;;;21.10;40.40;;;;;;492198;240;1924;-50
2022/09/20 01:07:30;;;;;;;;;;;21.10;40.40;;;;;;491771;240;1262;-50
2022/09/20 01:09:31;;;;;;;;;;;21.10;40.40;;;;;;492116;240;2203;-51
2022/09/20 01:11:32;;;;;;;;;;;21.10;40.30;;;;;;491717;240;1245;-52
2022/09/20 01:13:34;;;;;;;;;;;21.10;40.40;;;;;;491693;240;1262;-50
2022/09/20 01:15:35;;;;;;;;;;;21.10;40.30;;;;;;491841;240;1311;-50
2022/09/20 01:17:36;;;;;;;;;;;21.10;40.30;;;;;;491743;240;1226;-50
2022/09/20 01:19:38;;;;;;;;;;;21.10;40.30;;;;;;492242;240;1212;-51
2022/09/20 01:21:39;;;;;;;;;;;21.10;40.30;;;;;;492052;240;1277;-50
2022/09/20 01:23:40;;;;;;;;;;;21.10;40.30;;;;;;491780;240;1257;-51
2022/09/20 01:25:42;;;;;;;;;;;21.10;40.30;;;;;;491771;240;1201;-51
2022/09/20 01:27:43;;;;;;;;;;;21.10;40.30;;;;;;491783;240;1084;-51
2022/09/20 01:29:44;;;;;;;;;;;21.10;40.20;;;;;;491911;240;2148;-51
2022/09/20 01:31:46;;;;;;;;;;;21.10;40.20;;;;;;491783;240;1282;-51
2022/09/20 01:33:47;;;;;;;;;;;21.10;40.20;;;;;;492248;240;1280;-50
2022/09/20 01:35:49;;;;;;;;;;;21.10;40.10;;;;;;492070;240;1379;-51
2022/09/20 01:37:50;;;;;;;;;;;21.10;40.20;;;;;;491825;240;1268;-50
2022/09/20 01:39:51;;;;;;;;;;;21.10;40.20;;;;;;492217;240;1456;-50
2022/09/20 01:41:53;;;;;;;;;;;21.10;40.20;;;;;;491725;240;1284;-51
2022/09/20 01:43:54;;;;;;;;;;;21.10;40.20;;;;;;492216;240;1247;-51
2022/09/20 01:45:55;;;;;;;;;;;21.10;40.10;;;;;;492222;240;1398;-50
2022/09/20 01:47:57;;;;;;;;;;;21.10;40.00;;;;;;492202;240;1355;-51
2022/09/20 01:49:58;;;;;;;;;;;21.10;40.10;;;;;;492178;240;2157;-51
2022/09/20 01:51:59;;;;;;;;;;;21.10;40.00;;;;;;492037;240;1329;-50
2022/09/20 01:54:01;;;;;;;;;;;21.10;40.00;;;;;;491744;240;1317;-50
2022/09/20 01:56:02;;;;;;;;;;;21.10;40.00;;;;;;492083;240;1302;-50
2022/09/20 01:58:03;;;;;;;;;;;21.10;40.00;;;;;;492063;240;1233;-50
2022/09/20 02:00:05;;;;;;;;;;;21.20;40.00;;;;;;492194;240;1275;-50
2022/09/20 02:02:06;;;;;;;;;;;21.10;39.90;;;;;;491981;240;1292;-51
2022/09/20 02:04:07;;;;;;;;;;;21.10;40.00;;;;;;492159;240;1206;-51
2022/09/20 02:06:09;;;;;;;;;;;21.10;40.10;;;;;;492181;240;1228;-51
2022/09/20 02:08:10;;;;;;;;;;;21.00;40.10;;;;;;491790;240;1301;-51
2022/09/20 02:10:12;;;;;;;;;;;21.10;40.10;;;;;;492041;240;2161;-51
2022/09/20 02:12:13;;;;;;;;;;;21.10;40.10;;;;;;491732;240;1291;-50
2022/09/20 02:14:14;;;;;;;;;;;21.10;40.00;;;;;;492207;240;1324;-51
2022/09/20 02:16:16;;;;;;;;;;;21.10;40.00;;;;;;492207;240;1246;-51
2022/09/20 02:18:17;;;;;;;;;;;21.10;40.10;;;;;;491764;240;1276;-51
2022/09/20 02:20:19;;;;;;;;;;;21.10;40.00;;;;;;492118;240;1255;-50
2022/09/20 02:22:20;;;;;;;;;;;21.10;40.00;;;;;;492013;240;1299;-51
2022/09/20 02:24:21;;;;;;;;;;;21.10;39.90;;;;;;492183;240;1346;-50
2022/09/20 02:26:22;;;;;;;;;;;21.10;39.90;;;;;;491783;240;1257;-51
2022/09/20 02:28:24;;;;;;;;;;;21.10;39.90;;;;;;491740;240;1276;-51
2022/09/20 02:30:25;;;;;;;;;;;21.10;39.90;;;;;;492173;240;2184;-51
2022/09/20 02:32:26;;;;;;;;;;;21.10;39.90;;;;;;492099;240;1210;-51
2022/09/20 02:34:28;;;;;;;;;;;21.10;39.90;;;;;;491723;240;1228;-50
2022/09/20 02:36:29;;;;;;;;;;;21.10;39.90;;;;;;491810;240;1223;-51
2022/09/20 02:38:30;;;;;;;;;;;21.10;39.90;;;;;;491781;240;1250;-51
2022/09/20 02:40:32;;;;;;;;;;;21.10;39.90;;;;;;492129;240;1421;-52
2022/09/20 02:42:33;;;;;;;;;;;21.10;39.90;;;;;;491782;240;1254;-51
2022/09/20 02:44:34;;;;;;;;;;;21.10;39.90;;;;;;491944;240;1296;-51
2022/09/20 02:46:36;;;;;;;;;;;21.00;39.80;;;;;;491914;240;1232;-50
2022/09/20 02:48:37;;;;;;;;;;;21.00;39.80;;;;;;492192;240;1265;-50
2022/09/20 02:50:38;;;;;;;;;;;21.10;39.80;;;;;;491791;240;2152;-50
2022/09/20 02:52:40;;;;;;;;;;;21.10;39.80;;;;;;492009;240;1224;-50
2022/09/20 02:54:41;;;;;;;;;;;21.10;39.70;;;;;;492149;240;1277;-51
2022/09/20 02:56:42;;;;;;;;;;;21.10;39.70;;;;;;492177;240;1227;-51
2022/09/20 02:58:44;;;;;;;;;;;21.10;39.80;;;;;;492177;240;1235;-51
2022/09/20 03:00:45;;;;;;;;;;;21.10;39.70;;;;;;491713;240;1281;-50
2022/09/20 03:02:50;;;;;;;;;;;21.10;39.70;;;;;;491730;240;1335;-51
2022/09/20 03:04:47;;;;;;;;;;;21.10;39.70;;;;;;492211;240;2252;-50
2022/09/20 03:06:49;;;;;;;;;;;21.10;39.70;;;;;;492069;240;1490;-50
2022/09/20 03:08:50;;;;;;;;;;;21.10;39.60;;;;;;491786;240;1387;-51
2022/09/20 03:10:51;;;;;;;;;;;21.10;39.70;;;;;;491670;240;2181;-51
2022/09/20 03:12:53;;;;;;;;;;;21.10;39.70;;;;;;491921;240;1328;-50
2022/09/20 03:14:54;;;;;;;;;;;21.10;39.70;;;;;;491734;240;1204;-51
2022/09/20 03:16:55;;;;;;;;;;;21.10;39.80;;;;;;491742;240;1184;-51
2022/09/20 03:18:57;;;;;;;;;;;21.10;39.80;;;;;;492223;240;1137;-50
2022/09/20 03:20:58;;;;;;;;;;;21.10;39.80;;;;;;492187;240;1169;-51
2022/09/20 03:22:59;;;;;;;;;;;21.10;39.80;;;;;;492073;240;1220;-51
2022/09/20 03:25:01;;;;;;;;;;;21.10;39.80;;;;;;491757;240;1309;-50
2022/09/20 03:27:02;;;;;;;;;;;21.10;39.70;;;;;;492247;240;1211;-50
2022/09/20 03:29:03;;;;;;;;;;;21.10;39.70;;;;;;492191;240;1297;-51
2022/09/20 03:31:05;;;;;;;;;;;21.10;39.60;;;;;;492001;240;2145;-51
2022/09/20 03:33:06;;;;;;;;;;;21.10;39.60;;;;;;492227;240;1336;-51
2022/09/20 03:35:07;;;;;;;;;;;21.10;39.60;;;;;;492242;240;1197;-51
2022/09/20 03:37:09;;;;;;;;;;;21.10;39.60;;;;;;492213;240;1253;-51
2022/09/20 03:39:10;;;;;;;;;;;21.10;39.90;;;;;;491740;240;1337;-51
2022/09/20 03:41:11;;;;;;;;;;;21.00;40.00;;;;;;492198;240;1386;-51
2022/09/20 03:43:13;;;;;;;;;;;21.00;40.10;;;;;;492214;240;1206;-50
2022/09/20 03:45:14;;;;;;;;;;;21.00;40.30;;;;;;491748;240;1288;-51
2022/09/20 03:47:15;;;;;;;;;;;21.00;40.40;;;;;;492075;240;1400;-51
2022/09/20 03:49:16;;;;;;;;;;;21.00;40.40;;;;;;491754;240;1225;-50
2022/09/20 03:51:18;;;;;;;;;;;21.00;40.60;;;;;;492206;240;2192;-51
2022/09/20 03:53:19;;;;;;;;;;;21.00;40.70;;;;;;492062;240;1290;-51
2022/09/20 03:55:21;;;;;;;;;;;21.00;40.70;;;;;;491872;240;1253;-51
2022/09/20 03:57:22;;;;;;;;;;;21.00;40.70;;;;;;492197;240;1320;-51
2022/09/20 03:59:23;;;;;;;;;;;21.00;40.70;;;;;;491685;240;1338;-50
2022/09/20 04:01:25;;;;;;;;;;;21.00;40.80;;;;;;492176;240;1801;-51
2022/09/20 04:03:26;;;;;;;;;;;21.00;40.90;;;;;;492181;240;1254;-51
2022/09/20 04:05:27;;;;;;;;;;;21.00;40.80;;;;;;491711;240;1265;-50
2022/09/20 04:07:29;;;;;;;;;;;21.00;40.80;;;;;;491756;240;1578;-51
2022/09/20 04:09:30;;;;;;;;;;;20.90;40.90;;;;;;491660;240;1601;-51
2022/09/20 04:11:31;;;;;;;;;;;21.00;40.90;;;;;;492142;240;2157;-50
2022/09/20 04:13:33;;;;;;;;;;;21.00;41.00;;;;;;492169;240;1337;-51
2022/09/20 04:15:34;;;;;;;;;;;21.00;40.90;;;;;;491899;240;1222;-50
2022/09/20 04:17:35;;;;;;;;;;;21.00;41.00;;;;;;492194;240;1306;-50
2022/09/20 04:19:37;;;;;;;;;;;21.00;41.00;;;;;;491723;240;1242;-51
2022/09/20 04:21:38;;;;;;;;;;;21.00;41.10;;;;;;492179;240;1201;-50
2022/09/20 04:23:39;;;;;;;;;;;21.00;41.00;;;;;;492081;240;1273;-51
2022/09/20 04:25:41;;;;;;;;;;;21.00;41.10;;;;;;491990;240;1251;-51
2022/09/20 04:27:42;;;;;;;;;;;21.00;41.10;;;;;;492209;240;1343;-51
2022/09/20 04:29:44;;;;;;;;;;;21.00;41.10;;;;;;491726;240;1110;-50
2022/09/20 04:31:45;;;;;;;;;;;21.00;41.10;;;;;;491707;240;2228;-51
2022/09/20 04:33:46;;;;;;;;;;;21.00;41.20;;;;;;492152;240;1207;-50
2022/09/20 04:38:07;;;;;;;;;;;21.00;41.20;;;;;;492202;242;1197;-51
2022/09/20 04:40:08;;;;;;;;;;;21.00;41.20;;;;;;491689;240;1527;-51
2022/09/20 04:42:09;;;;;;;;;;;21.00;41.20;;;;;;491902;240;1201;-50
2022/09/20 04:44:11;;;;;;;;;;;20.90;41.20;;;;;;491671;240;1233;-51
2022/09/20 04:46:12;;;;;;;;;;;21.00;41.40;;;;;;492179;240;1251;-51
2022/09/20 04:48:14;;;;;;;;;;;21.00;41.30;;;;;;491698;240;1179;-50
2022/09/20 04:50:15;;;;;;;;;;;21.00;41.40;;;;;;492126;240;1168;-51
2022/09/20 04:52:16;;;;;;;;;;;21.00;41.40;;;;;;491895;240;2208;-51
2022/09/20 04:54:18;;;;;;;;;;;21.00;41.40;;;;;;491655;240;1193;-50
2022/09/20 04:56:19;;;;;;;;;;;21.00;41.40;;;;;;492195;240;1304;-50
2022/09/20 04:58:20;;;;;;;;;;;21.00;41.40;;;;;;491884;240;1299;-50
2022/09/20 05:00:22;;;;;;;;;;;20.90;41.50;;;;;;492137;240;1178;-51
2022/09/20 05:02:23;;;;;;;;;;;21.00;41.50;;;;;;491830;240;2129;-50
2022/09/20 05:04:24;;;;;;;;;;;21.00;41.50;;;;;;491804;240;1501;-51
2022/09/20 05:06:25;;;;;;;;;;;20.90;41.50;;;;;;492231;240;1191;-50
2022/09/20 05:08:27;;;;;;;;;;;21.00;41.50;;;;;;492161;240;1273;-50
2022/09/20 05:10:28;;;;;;;;;;;21.00;41.50;;;;;;491732;240;1311;-50
2022/09/20 05:12:29;;;;;;;;;;;21.00;41.60;;;;;;492172;240;2192;-51
2022/09/20 05:14:31;;;;;;;;;;;21.00;41.50;;;;;;491766;240;1230;-51
2022/09/20 05:16:32;;;;;;;;;;;21.00;41.50;;;;;;491605;240;1542;-51
2022/09/20 05:18:33;;;;;;;;;;;21.00;41.50;;;;;;491720;240;1283;-51
2022/09/20 05:20:35;;;;;;;;;;;21.00;41.50;;;;;;491900;240;1308;-50
2022/09/20 05:22:36;;;;;;;;;;;21.00;41.60;;;;;;491652;240;1249;-51
2022/09/20 05:24:37;;;;;;;;;;;21.00;41.60;;;;;;491665;240;1235;-51
2022/09/20 05:26:39;;;;;;;;;;;21.00;41.60;;;;;;491897;240;1294;-50
2022/09/20 05:28:40;;;;;;;;;;;21.00;41.60;;;;;;491558;240;1295;-50
2022/09/20 05:30:41;;;;;;;;;;;21.00;41.60;;;;;;492068;240;2188;-50
2022/09/20 05:32:43;;;;;;;;;;;21.00;41.70;;;;;;492065;240;1236;-51
2022/09/20 05:34:44;;;;;;;;;;;21.00;41.60;;;;;;491514;240;1246;-50
2022/09/20 05:36:46;;;;;;;;;;;21.00;41.70;;;;;;491625;240;1246;-50
2022/09/20 05:38:47;;;;;;;;;;;21.00;41.70;;;;;;491831;240;1400;-51
2022/09/20 05:40:48;;;;;;;;;;;21.00;41.70;;;;;;491661;240;1193;-50
2022/09/20 05:42:49;;;;;;;;;;;21.00;41.70;;;;;;491591;240;1347;-50
2022/09/20 05:44:51;;;;;;;;;;;21.00;41.70;;;;;;491632;240;1261;-51
2022/09/20 05:46:52;;;;;;;;;;;21.00;41.70;;;;;;492121;240;1126;-51
2022/09/20 05:48:53;;;;;;;;;;;21.00;41.70;;;;;;491946;240;1142;-51
2022/09/20 05:50:55;;;;;;;;;;;21.00;41.80;;;;;;491877;240;2157;-50
2022/09/20 05:52:57;;;;;;;;;;;21.00;41.80;;;;;;491771;240;1298;-51
2022/09/20 05:54:58;;;;;;;;;;;21.00;41.80;;;;;;491761;240;1236;-50
2022/09/20 05:57:00;;;;;;;;;;;21.00;41.80;;;;;;491710;240;1212;-50
2022/09/20 05:59:01;;;;;;;;;;;21.00;41.80;;;;;;492072;240;1199;-50
2022/09/20 06:01:03;;;;;;;;;;;21.00;41.80;;;;;;492089;240;1242;-51
2022/09/20 06:03:04;;;;;;;;;;;21.00;41.90;;;;;;491640;240;1184;-50
2022/09/20 06:05:05;;;;;;;;;;;21.00;41.90;;;;;;492018;240;1174;-50
2022/09/20 06:07:08;;;;;;;;;;;21.00;41.90;;;;;;491706;240;1345;-50
2022/09/20 06:09:08;;;;;;;;;;;21.00;42.00;;;;;;491661;240;1626;-51
2022/09/20 06:11:09;;;;;;;;;;;21.00;42.00;;;;;;491548;240;2172;-50
2022/09/20 06:13:11;;;;;;;;;;;21.00;42.00;;;;;;492134;240;1207;-51
2022/09/20 06:15:12;;;;;;;;;;;21.00;42.00;;;;;;491901;240;1465;-51
2022/09/20 06:17:13;;;;;;;;;;;21.00;41.90;;;;;;491955;240;1346;-51
2022/09/20 06:19:16;;;;;;;;;;;21.00;42.00;;;;;;490946;240;1203;-51
2022/09/20 06:21:16;;;;;;;;;;;20.90;42.00;;;;;;491335;240;1415;-50
2022/09/20 06:23:17;;;;;;;;;;;21.00;42.00;;;;;;491896;240;1386;-50
2022/09/20 06:25:19;;;;;;;;;;;21.00;42.10;;;;;;491621;240;1201;-50
2022/09/20 06:27:20;;;;;;;;;;;20.90;42.10;;;;;;492019;240;1342;-50
2022/09/20 06:29:21;;;;;;;;;;;21.00;42.10;;;;;;491749;240;1202;-51
2022/09/20 06:31:23;;;;;;;;;;;21.00;42.10;;;;;;491884;240;2217;-51
2022/09/20 06:33:24;;;;;;;;;;;21.00;42.10;;;;;;491502;240;1259;-50
2022/09/20 06:35:26;;;;;;;;;;;21.00;42.10;;;;;;491603;240;1206;-51
2022/09/20 06:42:05;;;;;;;;;;;21.00;42.10;;;;;;491595;242;1174;-51
2022/09/20 06:44:07;;;;;;;;;;;21.00;42.20;;;;;;491347;240;1419;-50
2022/09/20 06:46:09;;;;;;;;;;;21.00;42.20;;;;;;491816;240;1235;-51
2022/09/20 06:48:10;;;;;;;;;;;21.00;42.20;;;;;;491591;240;2284;-50
2022/09/20 06:50:12;;;;;;;;;;;21.00;42.20;;;;;;492008;240;1453;-51
2022/09/20 06:52:12;;;;;;;;;;;21.00;42.20;;;;;;491981;240;2460;-51
2022/09/20 06:54:13;;;;;;;;;;;21.00;42.20;;;;;;491454;240;1201;-51
2022/09/20 06:56:15;;;;;;;;;;;21.00;42.30;;;;;;491320;240;1200;-51
2022/09/20 06:58:16;;;;;;;;;;;21.00;42.20;;;;;;491533;240;1213;-51
2022/09/20 07:00:18;;;;;;;;;;;21.00;42.30;;;;;;491476;240;1198;-51
2022/09/20 07:02:19;;;;;;;;;;;21.00;42.30;;;;;;491494;240;1446;-49
2022/09/20 07:04:20;;;;;;;;;;;21.00;42.30;;;;;;491519;240;1257;-51
2022/09/20 07:06:21;;;;;;;;;;;21.00;42.30;;;;;;491519;240;1508;-50
2022/09/20 07:08:23;;;;;;;;;;;21.00;42.40;;;;;;491474;240;1197;-51
2022/09/20 07:10:26;;;;;;;;;;;21.00;42.40;;;;;;491529;240;1149;-51
2022/09/20 07:12:25;;;;;;;;;;;21.00;42.40;;;;;;491538;240;2183;-50
2022/09/20 07:14:27;;;;;;;;;;;21.00;42.40;;;;;;491550;240;1177;-51
2022/09/20 07:16:28;;;;;;;;;;;21.00;42.40;;;;;;491940;240;1112;-51
2022/09/20 07:18:29;;;;;;;;;;;21.00;42.40;;;;;;491631;240;1271;-51
2022/09/20 07:20:31;;;;;;;;;;;21.00;42.50;;;;;;491480;240;1067;-51
2022/09/20 07:22:32;;;;;;;;;;;21.00;42.40;;;;;;491529;240;1391;-51
2022/09/20 07:24:33;;;;;;;;;;;21.00;42.50;;;;;;491310;240;1212;-50
2022/09/20 07:26:35;;;;;;;;;;;21.00;42.50;;;;;;491442;240;1293;-50
2022/09/20 07:28:36;;;;;;;;;;;21.00;42.60;;;;;;491489;240;1311;-50
2022/09/20 07:30:38;;;;;;;;;;;21.00;42.60;;;;;;491336;240;1284;-50
2022/09/20 07:32:39;;;;;;;;;;;21.00;42.60;;;;;;491301;240;2191;-50
2022/09/20 07:34:40;;;;;;;;;;;21.00;42.50;;;;;;491575;240;1271;-50
2022/09/20 07:36:42;;;;;;;;;;;21.00;42.60;;;;;;491527;240;1219;-50
2022/09/20 07:38:43;;;;;;;;;;;21.00;42.60;;;;;;491565;240;1228;-50
2022/09/20 07:40:45;;;;;;;;;;;21.00;42.60;;;;;;491416;240;1196;-50
2022/09/20 07:42:46;;;;;;;;;;;21.10;42.60;;;;;;491408;240;1273;-51
2022/09/20 07:44:47;;;;;;;;;;;21.00;42.60;;;;;;491611;240;1232;-51
2022/09/20 07:46:48;;;;;;;;;;;21.10;42.70;;;;;;491205;240;1250;-51
2022/09/20 07:48:50;;;;;;;;;;;21.10;42.60;;;;;;491563;240;1177;-51
2022/09/20 07:50:51;;;;;;;;;;;21.10;42.70;;;;;;491363;240;1190;-52
2022/09/20 07:52:52;;;;;;;;;;;21.00;42.70;;;;;;491555;240;2200;-51
2022/09/20 07:54:54;;;;;;;;;;;21.00;42.70;;;;;;491528;240;1134;-50
2022/09/20 07:56:55;;;;;;;;;;;21.00;42.70;;;;;;491510;240;1406;-51
2022/09/20 07:58:57;;;;;;;;;;;21.00;42.70;;;;;;491673;240;1292;-50
2022/09/20 08:00:58;;;;;;;;;;;21.00;42.70;;;;;;491339;240;1201;-50
2022/09/20 08:02:59;;;;;;;;;;;21.00;42.80;;;;;;491621;240;1200;-50
2022/09/20 08:05:01;;;;;;;;;;;21.00;42.80;;;;;;491883;240;1645;-50
2022/09/20 08:07:02;;;;;;;;;;;21.00;42.80;;;;;;491687;240;1263;-51
2022/09/20 08:09:03;;;;;;;;;;;21.00;42.90;;;;;;491573;240;1189;-51
2022/09/20 08:11:05;;;;;;;;;;;21.10;42.90;;;;;;491461;240;1248;-51
2022/09/20 08:13:06;;;;;;;;;;;21.00;42.80;;;;;;491634;240;2140;-50
2022/09/20 08:15:07;;;;;;;;;;;21.00;42.80;;;;;;491645;240;1284;-50
2022/09/20 08:17:09;;;;;;;;;;;21.00;42.80;;;;;;491427;240;1240;-51
2022/09/20 08:19:11;;;;;;;;;;;21.00;42.90;;;;;;491422;240;1253;-50
2022/09/20 08:21:11;;;;;;;;;;;21.00;42.90;;;;;;491610;240;2379;-50
2022/09/20 08:23:13;;;;;;;;;;;21.10;43.00;;;;;;491443;240;1217;-51
2022/09/20 08:25:16;;;;;;;;;;;21.10;42.90;;;;;;491720;240;1310;-50
2022/09/20 08:27:16;;;;;;;;;;;21.00;42.90;;;;;;491672;240;1435;-51
2022/09/20 08:29:17;;;;;;;;;;;21.10;42.90;;;;;;491752;240;1404;-50
2022/09/20 08:31:19;;;;;;;;;;;21.00;43.00;;;;;;491565;240;1227;-51
2022/09/20 08:33:20;;;;;;;;;;;21.10;43.00;;;;;;491464;240;2184;-51
2022/09/20 08:35:24;;;;;;;;;;;21.00;43.00;;;;;;491610;240;1639;-50
2022/09/20 08:37:23;;;;;;;;;;;21.10;43.10;;;;;;491813;240;2184;-50
2022/09/20 08:39:25;;;;;;;;;;;21.10;43.00;;;;;;491518;240;1175;-51
2022/09/20 08:41:26;;;;;;;;;;;21.00;43.00;;;;;;491033;240;1327;-51
2022/09/20 08:43:27;;;;;;;;;;;21.10;43.00;;;;;;491476;240;1215;-50
2022/09/20 08:45:28;;;;;;;;;;;21.10;43.00;;;;;;491817;240;1131;-50
2022/09/20 08:47:30;;;;;;;;;;;21.10;43.00;;;;;;491568;240;1102;-50
2022/09/20 08:49:32;;;;;;;;;;;21.10;42.80;;;;;;491616;240;1099;-51
2022/09/20 08:51:33;;;;;;;;;;;21.10;42.70;;;;;;491055;240;1224;-51
2022/09/20 08:53:34;;;;;;;;;;;21.10;42.70;;;;;;491545;240;2180;-51
2022/09/20 08:55:39;;;;;;;;;;;21.10;42.60;;;;;;491791;240;1278;-51
2022/09/20 08:57:37;;;;;;;;;;;21.10;42.60;;;;;;491518;240;2114;-50
2022/09/20 08:59:39;;;;;;;;;;;21.20;42.60;;;;;;491812;240;1204;-50
2022/09/20 09:01:40;;;;;;;;;;;21.10;42.50;;;;;;491542;240;1844;-50
2022/09/20 09:03:41;;;;;;;;;;;21.10;42.50;;;;;;491403;240;1192;-51
2022/09/20 09:05:42;;;;;;;;;;;21.10;42.50;;;;;;491441;240;1329;-50
2022/09/20 09:07:44;;;;;;;;;;;21.20;42.50;;;;;;491216;240;1164;-51
2022/09/20 09:09:46;;;;;;;;;;;21.20;42.50;;;;;;491140;240;1280;-50
2022/09/20 09:11:48;;;;;;;;;;;21.20;42.50;;;;;;491286;240;1202;-50
2022/09/20 09:13:50;;;;;;;;;;;21.20;42.40;;;;;;491860;240;2106;-52
2022/09/20 09:15:51;;;;;;;;;;;21.20;42.30;;;;;;491419;240;1402;-51
2022/09/20 09:17:52;;;;;;;;;;;21.20;42.30;;;;;;491432;240;2669;-52
2022/09/20 09:19:53;;;;;;;;;;;21.20;42.30;;;;;;491558;240;1141;-51
2022/09/20 09:21:54;;;;;;;;;;;21.10;42.20;;;;;;491482;240;1330;-51
2022/09/20 09:23:57;;;;;;;;;;;21.20;42.30;;;;;;491877;240;1244;-51
2022/09/20 09:25:57;;;;;;;;;;;21.20;42.20;;;;;;491285;240;1798;-51
2022/09/20 09:27:59;;;;;;;;;;;21.20;42.10;;;;;;491547;240;1312;-51
2022/09/20 09:30:00;;;;;;;;;;;21.20;42.00;;;;;;491712;240;1262;-50
2022/09/20 09:32:01;;;;;;;;;;;21.20;42.10;;;;;;491750;240;1147;-50
2022/09/20 09:34:03;;;;;;;;;;;21.20;41.90;;;;;;491557;240;2188;-50
2022/09/20 09:36:04;;;;;;;;;;;21.20;41.90;;;;;;491603;240;1231;-51
2022/09/20 09:38:05;;;;;;;;;;;21.20;41.90;;;;;;491676;240;1195;-51
2022/09/20 09:40:07;;;;;;;;;;;21.20;41.90;;;;;;491300;240;1320;-50
2022/09/20 09:42:08;;;;;;;;;;;21.20;41.90;;;;;;491296;240;1265;-51
2022/09/20 09:44:09;;;;;;;;;;;21.20;41.80;;;;;;491598;240;1288;-51
2022/09/20 09:46:11;;;;;;;;;;;21.20;41.80;;;;;;491605;240;1219;-50
2022/09/20 09:48:12;;;;;;;;;;;21.20;41.80;;;;;;491435;240;1266;-50
2022/09/20 09:50:13;;;;;;;;;;;21.20;41.80;;;;;;491562;240;1216;-51
2022/09/20 09:52:15;;;;;;;;;;;21.20;41.70;;;;;;491660;240;2195;-50
2022/09/20 09:54:17;;;;;;;;;;;21.20;41.70;;;;;;491581;240;1219;-50
2022/09/20 09:56:17;;;;;;;;;;;21.20;41.70;;;;;;491401;240;1435;-50
2022/09/20 09:58:22;;;;;;;;;;;21.20;41.60;;;;;;491522;240;1265;-51
2022/09/20 10:00:21;;;;;;;;;;;21.20;41.60;;;;;;491538;240;2001;-50
2022/09/20 10:02:22;;;;;;;;;;;21.20;41.70;;;;;;491826;240;1203;-50
2022/09/20 10:04:23;;;;;;;;;;;21.20;41.50;;;;;;491973;240;1300;-51
2022/09/20 10:06:24;;;;;;;;;;;21.20;41.50;;;;;;491513;240;1215;-50
2022/09/20 10:08:26;;;;;;;;;;;21.20;41.40;;;;;;491445;240;1193;-50
2022/09/20 10:10:27;;;;;;;;;;;21.20;41.40;;;;;;491600;240;1192;-50
2022/09/20 10:12:29;;;;;;;;;;;21.20;41.40;;;;;;491944;240;2165;-51
2022/09/20 10:14:30;;;;;;;;;;;21.20;41.40;;;;;;492008;240;1250;-50
2022/09/20 10:16:31;;;;;;;;;;;21.20;41.30;;;;;;491166;240;1215;-52
2022/09/20 10:18:33;;;;;;;;;;;21.20;41.30;;;;;;491077;240;1329;-50
2022/09/20 10:20:34;;;;;;;;;;;21.20;41.20;;;;;;491485;240;1374;-50
2022/09/20 10:22:35;;;;;;;;;;;21.20;41.30;;;;;;491761;240;1246;-50
2022/09/20 10:24:36;;;;;;;;;;;21.20;41.20;;;;;;491522;240;1188;-51
2022/09/20 10:26:38;;;;;;;;;;;21.30;41.20;;;;;;491848;240;1289;-51
2022/09/20 10:28:47;;;;;;;;;;;21.30;41.20;;;;;;491734;240;1299;-51
2022/09/20 10:30:41;;;;;;;;;;;21.30;41.10;;;;;;491500;240;1471;-50
2022/09/20 10:32:44;;;;;;;;;;;21.30;41.20;;;;;;491578;240;2152;-51
2022/09/20 10:34:43;;;;;;;;;;;21.30;41.20;;;;;;491761;240;2039;-51
2022/09/20 10:36:44;;;;;;;;;;;21.20;41.20;;;;;;491634;240;1225;-51
2022/09/20 10:38:46;;;;;;;;;;;21.20;41.20;;;;;;491617;240;1190;-50
2022/09/20 10:43:15;;;;;;;;;;;21.20;41.10;;;;;;491800;242;1231;-50
2022/09/20 10:45:17;;;;;;;;;;;21.20;41.10;;;;;;491496;240;1426;-50
2022/09/20 10:47:19;;;;;;;;;;;21.20;41.00;;;;;;491610;240;1209;-51
2022/09/20 10:49:22;;;;;;;;;;;21.20;40.90;;;;;;491859;240;1191;-51
2022/09/20 10:51:24;;;;;;;;;;;21.20;40.90;;;;;;491419;240;1571;-51
2022/09/20 10:53:24;;;;;;;;;;;21.30;41.00;;;;;;491887;240;2200;-51
2022/09/20 10:55:26;;;;;;;;;;;21.30;40.90;;;;;;491528;240;1221;-51
2022/09/20 10:57:27;;;;;;;;;;;21.20;40.90;;;;;;491420;240;1263;-51
2022/09/20 10:59:28;;;;;;;;;;;21.30;41.00;;;;;;491497;240;1215;-50
2022/09/20 11:01:30;;;;;;;;;;;21.30;40.90;;;;;;491846;240;1172;-51
2022/09/20 11:03:31;;;;;;;;;;;21.30;40.80;;;;;;491605;240;1323;-50
2022/09/20 11:05:32;;;;;;;;;;;21.30;40.80;;;;;;491521;240;1152;-50
2022/09/20 11:07:34;;;;;;;;;;;21.30;40.90;;;;;;491823;240;1427;-50
2022/09/20 11:09:35;;;;;;;;;;;21.30;40.80;;;;;;491848;240;1205;-51
2022/09/20 11:11:36;;;;;;;;;;;21.30;40.90;;;;;;491537;240;1737;-51
2022/09/20 11:13:38;;;;;;;;;;;21.30;40.80;;;;;;491340;240;2208;-51
2022/09/20 11:15:40;;;;;;;;;;;21.30;40.80;;;;;;491843;240;1267;-50
2022/09/20 11:17:40;;;;;;;;;;;21.30;40.80;;;;;;491304;240;2331;-51
2022/09/20 11:19:41;;;;;;;;;;;21.20;40.70;;;;;;491871;240;1274;-50
2022/09/20 11:21:43;;;;;;;;;;;21.20;40.80;;;;;;491169;240;1505;-49
2022/09/20 11:23:44;;;;;;;;;;;21.30;40.70;;;;;;491509;240;1229;-51
2022/09/20 11:25:46;;;;;;;;;;;21.30;40.70;;;;;;491228;240;1283;-51
2022/09/20 11:27:47;;;;;;;;;;;21.30;40.70;;;;;;491404;240;1209;-50
2022/09/20 11:29:49;;;;;;;;;;;21.30;40.70;;;;;;491484;240;1209;-51
2022/09/20 11:31:51;;;;;;;;;;;21.30;40.60;;;;;;491399;240;1314;-51
2022/09/20 11:33:52;;;;;;;;;;;21.30;40.70;;;;;;491522;240;2157;-51
2022/09/20 11:35:53;;;;;;;;;;;21.20;40.50;;;;;;491460;240;1208;-51
2022/09/20 11:37:55;;;;;;;;;;;21.30;40.60;;;;;;491370;240;1282;-50
2022/09/20 11:39:56;;;;;;;;;;;21.30;40.60;;;;;;491526;240;2140;-51
2022/09/20 11:41:58;;;;;;;;;;;21.30;40.50;;;;;;491181;240;1309;-51
2022/09/20 11:43:59;;;;;;;;;;;21.30;40.50;;;;;;491773;240;2221;-50
2022/09/20 11:46:00;;;;;;;;;;;21.30;40.50;;;;;;491459;240;1233;-51
2022/09/20 11:48:01;;;;;;;;;;;21.30;40.40;;;;;;491469;240;1195;-51
2022/09/20 11:50:03;;;;;;;;;;;21.30;40.50;;;;;;491896;240;1230;-51
2022/09/20 11:52:04;;;;;;;;;;;21.30;40.60;;;;;;491544;240;1210;-51
2022/09/20 11:54:05;;;;;;;;;;;21.30;40.60;;;;;;491624;240;2145;-51
2022/09/20 11:56:07;;;;;;;;;;;21.30;40.60;;;;;;491108;240;1177;-51
2022/09/20 11:58:08;;;;;;;;;;;21.20;40.50;;;;;;491483;240;1193;-51
2022/09/20 12:00:09;;;;;;;;;;;21.30;40.50;;;;;;491465;240;1205;-51
2022/09/20 12:02:11;;;;;;;;;;;21.30;40.50;;;;;;491489;240;1130;-50
2022/09/20 12:04:12;;;;;;;;;;;21.30;40.50;;;;;;491663;240;1100;-51
2022/09/20 12:06:13;;;;;;;;;;;21.30;40.40;;;;;;491542;240;1122;-50